Granite Falls, NC

4:46 AM EST on January 27, 2015 (GMT -0500)
Hickory Regional | Change Station
CLOSE
Current Station
Airport
Location: Hickory,
Elevation: 1188 ft
Nearby Weather Stations

Elev 1188 ft 35.74 °N, 81.38 °W | Updated 53 minutes ago

Clear
Clear
30 °F
Feels Like 22 °F
N
8
Wind Variable Wind from NW

Today
High -- | Low -- °F
--% Chance of Precip.
Yesterday
High -- | Low -- °F
Precip. -- in
7:29 AM 5:47 PM
First Quarter, 52% visible
Pressure 29.73 in
Visibility 10.0 miles
Clouds Clear
Windchill 22 °F
Dew Point 17 °F
Humidity 59%
Rainfall 0.00 in
Snow Depth Not available.
UV 0 out of 12
Pollen .50 out of 12
Air Quality Not available.
Flu Activity Not available.
METAR KHKY 270853Z AUTO 31007KT 10SM CLR M01/M08 A2975 RMK AO2 SLP068 T10111083 $

More Conditions Fewer Conditions

Pressure 29.73 in
Visibility 10.0 miles
Clouds Clear
Windchill 22 °F
Dew Point 17 °F
Humidity 59%
Rainfall 0.00 in
Snow Depth Not available.
UV 0 out of 12
Pollen .50 out of 12
Air Quality Not available.
Flu Activity Not available.
METAR KHKY 270853Z AUTO 31007KT 10SM CLR M01/M08 A2975 RMK AO2 SLP068 T10111083 $

More Conditions Fewer Conditions

10-Day Weather Forecast

Almanac

Astronomy

Jan. 27, 2015 Rise Set
Actual Time
Civil Twilight
Nautical Twilight
Astronomical Twilight
Moon
Length of Visible Light
Length of Day
Tomorrow will be .
, % of the Moon is Illuminated

Today's Extremes

State Highs State Lows

Community

WunderPhotos

Upload Photos

1,790,555 photos uploaded!

WunderBlogs® & News

Nearby

Air Quality

  Air Quality AQ Index Pollutant
Not available.

Snow Depth

Station Depth Elevation

Earthquake Activity

City Distance Mag. Time & Date
Minimum magnitude displayed is 2.5.

Coastal Water Temperatures

Place Temperature

Nearby Weather Stations